sensor_id;sensor_type;location;lat;lon;timestamp;temperature;humidity
9157;DHT22;4613;48.392;9.998;2023-01-08T00:00:33;3.40;99.90
9157;DHT22;4613;48.392;9.998;2023-01-08T00:03:22;3.10;99.90
9157;DHT22;4613;48.392;9.998;2023-01-08T00:06:15;2.90;99.90
9157;DHT22;4613;48.392;9.998;2023-01-08T00:09:05;2.80;99.90
9157;DHT22;4613;48.392;9.998;2023-01-08T00:11:55;2.50;99.90
9157;DHT22;4613;48.392;9.998;2023-01-08T00:14:46;2.60;99.90
9157;DHT22;4613;48.392;9.998;2023-01-08T00:17:35;2.40;99.90
9157;DHT22;4613;48.392;9.998;2023-01-08T00:20:26;2.30;99.90
9157;DHT22;4613;48.392;9.998;2023-01-08T00:23:17;2.30;99.90
9157;DHT22;4613;48.392;9.998;2023-01-08T00:26:09;2.90;99.90
9157;DHT22;4613;48.392;9.998;2023-01-08T00:28:58;3.20;99.90
9157;DHT22;4613;48.392;9.998;2023-01-08T00:31:48;3.30;99.90
9157;DHT22;4613;48.392;9.998;2023-01-08T00:34:37;3.20;99.90
9157;DHT22;4613;48.392;9.998;2023-01-08T00:37:27;3.00;99.90
9157;DHT22;4613;48.392;9.998;2023-01-08T00:40:16;3.20;99.90
9157;DHT22;4613;48.392;9.998;2023-01-08T00:43:06;3.60;99.90
9157;DHT22;4613;48.392;9.998;2023-01-08T00:45:56;3.60;99.90
9157;DHT22;4613;48.392;9.998;2023-01-08T00:48:45;3.60;99.90
9157;DHT22;4613;48.392;9.998;2023-01-08T00:51:35;3.60;99.90
9157;DHT22;4613;48.392;9.998;2023-01-08T00:54:24;2.70;99.90
9157;DHT22;4613;48.392;9.998;2023-01-08T00:57:13;2.60;99.90
9157;DHT22;4613;48.392;9.998;2023-01-08T01:00:05;2.80;99.90
9157;DHT22;4613;48.392;9.998;2023-01-08T01:02:54;2.60;99.90
9157;DHT22;4613;48.392;9.998;2023-01-08T01:05:43;2.60;99.90
9157;DHT22;4613;48.392;9.998;2023-01-08T01:08:34;3.00;99.90
9157;DHT22;4613;48.392;9.998;2023-01-08T01:11:25;3.20;99.90
9157;DHT22;4613;48.392;9.998;2023-01-08T01:14:15;3.20;99.90
9157;DHT22;4613;48.392;9.998;2023-01-08T01:17:05;2.20;99.90
9157;DHT22;4613;48.392;9.998;2023-01-08T01:19:54;1.50;99.90
9157;DHT22;4613;48.392;9.998;2023-01-08T01:22:44;1.70;99.90
9157;DHT22;4613;48.392;9.998;2023-01-08T01:25:36;2.20;99.90
9157;DHT22;4613;48.392;9.998;2023-01-08T01:28:26;2.20;99.90
9157;DHT22;4613;48.392;9.998;2023-01-08T01:31:15;2.30;99.90
9157;DHT22;4613;48.392;9.998;2023-01-08T01:34:04;2.30;99.90
9157;DHT22;4613;48.392;9.998;2023-01-08T01:36:54;2.40;99.90
9157;DHT22;4613;48.392;9.998;2023-01-08T01:39:43;2.70;99.90
9157;DHT22;4613;48.392;9.998;2023-01-08T01:42:34;2.80;99.90
9157;DHT22;4613;48.392;9.998;2023-01-08T01:45:29;2.70;99.90
9157;DHT22;4613;48.392;9.998;2023-01-08T01:48:19;3.10;99.90
9157;DHT22;4613;48.392;9.998;2023-01-08T01:51:08;3.20;99.90
9157;DHT22;4613;48.392;9.998;2023-01-08T01:54:00;2.90;99.90
9157;DHT22;4613;48.392;9.998;2023-01-08T01:56:50;3.20;99.90
9157;DHT22;4613;48.392;9.998;2023-01-08T01:59:40;3.10;99.90
9157;DHT22;4613;48.392;9.998;2023-01-08T02:02:30;3.10;99.90
9157;DHT22;4613;48.392;9.998;2023-01-08T02:05:22;2.80;99.90
9157;DHT22;4613;48.392;9.998;2023-01-08T02:11:44;2.60;99.90
9157;DHT22;4613;48.392;9.998;2023-01-08T02:17:53;2.90;99.90
9157;DHT22;4613;48.392;9.998;2023-01-08T02:20:53;3.20;99.90
9157;DHT22;4613;48.392;9.998;2023-01-08T02:26:36;3.10;99.90
9157;DHT22;4613;48.392;9.998;2023-01-08T02:29:27;3.00;99.90
9157;DHT22;4613;48.392;9.998;2023-01-08T02:32:22;3.10;99.90
9157;DHT22;4613;48.392;9.998;2023-01-08T02:35:13;2.80;99.90
9157;DHT22;4613;48.392;9.998;2023-01-08T02:38:03;2.70;99.90
9157;DHT22;4613;48.392;9.998;2023-01-08T02:41:03;2.90;99.90
9157;DHT22;4613;48.392;9.998;2023-01-08T02:43:55;2.70;99.90
9157;DHT22;4613;48.392;9.998;2023-01-08T02:46:48;2.70;99.90
9157;DHT22;4613;48.392;9.998;2023-01-08T02:49:41;3.00;99.90
9157;DHT22;4613;48.392;9.998;2023-01-08T02:52:43;3.30;99.90
9157;DHT22;4613;48.392;9.998;2023-01-08T02:55:34;2.90;99.90
9157;DHT22;4613;48.392;9.998;2023-01-08T02:58:26;2.20;99.90
9157;DHT22;4613;48.392;9.998;2023-01-08T03:01:18;2.50;99.90
9157;DHT22;4613;48.392;9.998;2023-01-08T03:04:18;2.80;99.90
9157;DHT22;4613;48.392;9.998;2023-01-08T03:07:09;3.20;99.90
9157;DHT22;4613;48.392;9.998;2023-01-08T03:09:58;3.20;99.90
9157;DHT22;4613;48.392;9.998;2023-01-08T03:12:53;3.10;99.90
9157;DHT22;4613;48.392;9.998;2023-01-08T03:15:50;3.20;99.90
9157;DHT22;4613;48.392;9.998;2023-01-08T03:18:45;3.10;99.90
9157;DHT22;4613;48.392;9.998;2023-01-08T03:21:37;3.00;99.90
9157;DHT22;4613;48.392;9.998;2023-01-08T03:24:32;3.10;99.90
9157;DHT22;4613;48.392;9.998;2023-01-08T03:27:27;2.90;99.90
9157;DHT22;4613;48.392;9.998;2023-01-08T03:30:18;3.10;99.90
9157;DHT22;4613;48.392;9.998;2023-01-08T03:33:12;3.00;99.90
9157;DHT22;4613;48.392;9.998;2023-01-08T03:36:04;2.90;99.90
9157;DHT22;4613;48.392;9.998;2023-01-08T03:39:00;3.00;99.90
9157;DHT22;4613;48.392;9.998;2023-01-08T03:41:58;3.20;99.90
9157;DHT22;4613;48.392;9.998;2023-01-08T03:44:50;3.20;99.90
9157;DHT22;4613;48.392;9.998;2023-01-08T03:47:40;3.00;99.90
9157;DHT22;4613;48.392;9.998;2023-01-08T03:50:31;2.80;99.90
9157;DHT22;4613;48.392;9.998;2023-01-08T03:53:24;2.80;99.90
9157;DHT22;4613;48.392;9.998;2023-01-08T03:56:14;2.60;99.90
9157;DHT22;4613;48.392;9.998;2023-01-08T03:59:04;2.40;99.90
9157;DHT22;4613;48.392;9.998;2023-01-08T04:01:53;2.60;99.90
9157;DHT22;4613;48.392;9.998;2023-01-08T04:04:43;2.80;99.90
9157;DHT22;4613;48.392;9.998;2023-01-08T04:07:32;3.00;99.90
9157;DHT22;4613;48.392;9.998;2023-01-08T04:10:22;3.00;99.90
9157;DHT22;4613;48.392;9.998;2023-01-08T04:13:12;2.90;99.90
9157;DHT22;4613;48.392;9.998;2023-01-08T04:16:01;3.00;99.90
9157;DHT22;4613;48.392;9.998;2023-01-08T04:18:51;3.30;99.90
9157;DHT22;4613;48.392;9.998;2023-01-08T04:21:40;3.30;99.90
9157;DHT22;4613;48.392;9.998;2023-01-08T04:24:30;3.30;99.90
9157;DHT22;4613;48.392;9.998;2023-01-08T04:27:22;2.90;99.90
9157;DHT22;4613;48.392;9.998;2023-01-08T04:30:11;2.90;99.90
9157;DHT22;4613;48.392;9.998;2023-01-08T04:33:01;2.70;99.90
9157;DHT22;4613;48.392;9.998;2023-01-08T04:35:50;2.70;99.90
9157;DHT22;4613;48.392;9.998;2023-01-08T04:38:41;2.70;99.90
9157;DHT22;4613;48.392;9.998;2023-01-08T04:41:30;2.60;99.90
9157;DHT22;4613;48.392;9.998;2023-01-08T04:44:19;2.70;99.90
9157;DHT22;4613;48.392;9.998;2023-01-08T04:47:08;2.70;99.90
9157;DHT22;4613;48.392;9.998;2023-01-08T04:49:57;3.20;99.90
9157;DHT22;4613;48.392;9.998;2023-01-08T04:52:46;3.00;99.90
9157;DHT22;4613;48.392;9.998;2023-01-08T04:55:36;2.70;99.90
9157;DHT22;4613;48.392;9.998;2023-01-08T04:58:25;2.70;99.90
9157;DHT22;4613;48.392;9.998;2023-01-08T05:01:19;2.70;99.90
9157;DHT22;4613;48.392;9.998;2023-01-08T05:04:10;3.10;99.90
9157;DHT22;4613;48.392;9.998;2023-01-08T05:06:59;3.30;99.90
9157;DHT22;4613;48.392;9.998;2023-01-08T05:09:49;2.90;99.90
9157;DHT22;4613;48.392;9.998;2023-01-08T05:12:38;2.90;99.90
9157;DHT22;4613;48.392;9.998;2023-01-08T05:15:30;2.90;99.90
9157;DHT22;4613;48.392;9.998;2023-01-08T05:18:20;2.80;99.90
9157;DHT22;4613;48.392;9.998;2023-01-08T05:21:10;2.60;99.90
9157;DHT22;4613;48.392;9.998;2023-01-08T05:23:59;2.50;99.90
9157;DHT22;4613;48.392;9.998;2023-01-08T05:26:49;2.70;99.90
9157;DHT22;4613;48.392;9.998;2023-01-08T05:29:39;2.90;99.90
9157;DHT22;4613;48.392;9.998;2023-01-08T05:32:28;2.70;99.90
9157;DHT22;4613;48.392;9.998;2023-01-08T05:35:17;2.90;99.90
9157;DHT22;4613;48.392;9.998;2023-01-08T05:38:07;2.80;99.90
9157;DHT22;4613;48.392;9.998;2023-01-08T05:40:56;2.90;99.90
9157;DHT22;4613;48.392;9.998;2023-01-08T05:43:45;2.70;99.90
9157;DHT22;4613;48.392;9.998;2023-01-08T05:46:34;2.50;99.90
9157;DHT22;4613;48.392;9.998;2023-01-08T05:49:23;2.70;99.90
9157;DHT22;4613;48.392;9.998;2023-01-08T05:52:12;2.60;99.90
9157;DHT22;4613;48.392;9.998;2023-01-08T05:55:02;2.20;99.90
9157;DHT22;4613;48.392;9.998;2023-01-08T05:57:51;2.60;99.90
9157;DHT22;4613;48.392;9.998;2023-01-08T06:00:40;2.90;99.90
9157;DHT22;4613;48.392;9.998;2023-01-08T06:03:29;2.70;99.90
9157;DHT22;4613;48.392;9.998;2023-01-08T06:06:19;2.70;99.90
9157;DHT22;4613;48.392;9.998;2023-01-08T06:09:14;2.70;99.90
9157;DHT22;4613;48.392;9.998;2023-01-08T06:12:04;2.50;99.90
9157;DHT22;4613;48.392;9.998;2023-01-08T06:14:53;2.60;99.90
9157;DHT22;4613;48.392;9.998;2023-01-08T06:17:43;2.60;99.90
9157;DHT22;4613;48.392;9.998;2023-01-08T06:23:19;1.80;99.90
9157;DHT22;4613;48.392;9.998;2023-01-08T06:26:09;2.10;99.90
9157;DHT22;4613;48.392;9.998;2023-01-08T06:29:00;2.10;99.90
9157;DHT22;4613;48.392;9.998;2023-01-08T06:31:50;2.50;99.90
9157;DHT22;4613;48.392;9.998;2023-01-08T06:34:39;2.80;99.90
9157;DHT22;4613;48.392;9.998;2023-01-08T06:37:28;2.50;99.90
9157;DHT22;4613;48.392;9.998;2023-01-08T06:40:17;2.80;99.90
9157;DHT22;4613;48.392;9.998;2023-01-08T06:43:07;2.60;99.90
9157;DHT22;4613;48.392;9.998;2023-01-08T06:45:56;2.50;99.90
9157;DHT22;4613;48.392;9.998;2023-01-08T06:48:46;2.60;99.90
9157;DHT22;4613;48.392;9.998;2023-01-08T06:51:35;2.50;99.90
9157;DHT22;4613;48.392;9.998;2023-01-08T06:54:25;2.40;99.90
9157;DHT22;4613;48.392;9.998;2023-01-08T06:57:15;2.50;99.90
9157;DHT22;4613;48.392;9.998;2023-01-08T07:00:05;2.40;99.90
9157;DHT22;4613;48.392;9.998;2023-01-08T07:02:56;2.50;99.90
9157;DHT22;4613;48.392;9.998;2023-01-08T07:05:45;2.30;99.90
9157;DHT22;4613;48.392;9.998;2023-01-08T07:08:35;2.40;99.90
9157;DHT22;4613;48.392;9.998;2023-01-08T07:11:25;2.70;99.90
9157;DHT22;4613;48.392;9.998;2023-01-08T07:14:15;2.90;99.90
9157;DHT22;4613;48.392;9.998;2023-01-08T07:17:04;2.90;99.90
9157;DHT22;4613;48.392;9.998;2023-01-08T07:19:54;3.10;99.90
9157;DHT22;4613;48.392;9.998;2023-01-08T07:22:43;3.00;99.90
9157;DHT22;4613;48.392;9.998;2023-01-08T07:25:33;2.70;99.90
9157;DHT22;4613;48.392;9.998;2023-01-08T07:28:29;2.50;99.90
9157;DHT22;4613;48.392;9.998;2023-01-08T07:31:18;2.60;99.90
9157;DHT22;4613;48.392;9.998;2023-01-08T07:34:07;2.70;99.90
9157;DHT22;4613;48.392;9.998;2023-01-08T07:36:57;2.60;99.90
9157;DHT22;4613;48.392;9.998;2023-01-08T07:39:46;2.60;99.90
9157;DHT22;4613;48.392;9.998;2023-01-08T07:42:37;2.90;99.90
9157;DHT22;4613;48.392;9.998;2023-01-08T07:45:27;2.80;99.90
9157;DHT22;4613;48.392;9.998;2023-01-08T07:48:17;2.70;99.90
9157;DHT22;4613;48.392;9.998;2023-01-08T07:51:07;2.90;99.90
9157;DHT22;4613;48.392;9.998;2023-01-08T07:53:58;3.00;99.90
9157;DHT22;4613;48.392;9.998;2023-01-08T07:56:48;3.30;99.90
9157;DHT22;4613;48.392;9.998;2023-01-08T07:59:37;3.70;99.90
9157;DHT22;4613;48.392;9.998;2023-01-08T08:02:26;3.60;99.90
9157;DHT22;4613;48.392;9.998;2023-01-08T08:05:15;3.70;99.90
9157;DHT22;4613;48.392;9.998;2023-01-08T08:08:10;3.90;99.90
9157;DHT22;4613;48.392;9.998;2023-01-08T08:11:00;3.80;99.90
9157;DHT22;4613;48.392;9.998;2023-01-08T08:13:52;3.70;99.90
9157;DHT22;4613;48.392;9.998;2023-01-08T08:16:41;3.50;99.90
9157;DHT22;4613;48.392;9.998;2023-01-08T08:19:31;3.00;99.90
9157;DHT22;4613;48.392;9.998;2023-01-08T08:22:21;2.90;99.90
9157;DHT22;4613;48.392;9.998;2023-01-08T08:25:11;3.10;99.90
9157;DHT22;4613;48.392;9.998;2023-01-08T08:28:03;3.10;99.90
9157;DHT22;4613;48.392;9.998;2023-01-08T08:30:53;3.30;99.90
9157;DHT22;4613;48.392;9.998;2023-01-08T08:33:43;3.20;99.90
9157;DHT22;4613;48.392;9.998;2023-01-08T08:36:32;3.00;99.90
9157;DHT22;4613;48.392;9.998;2023-01-08T08:39:25;3.10;99.90
9157;DHT22;4613;48.392;9.998;2023-01-08T08:42:14;3.10;99.90
9157;DHT22;4613;48.392;9.998;2023-01-08T08:45:04;3.20;99.90
9157;DHT22;4613;48.392;9.998;2023-01-08T08:47:54;3.50;99.90
9157;DHT22;4613;48.392;9.998;2023-01-08T08:50:43;3.30;99.90
9157;DHT22;4613;48.392;9.998;2023-01-08T08:53:35;3.40;99.90
9157;DHT22;4613;48.392;9.998;2023-01-08T08:56:25;3.50;99.90
9157;DHT22;4613;48.392;9.998;2023-01-08T08:59:17;3.00;99.90
9157;DHT22;4613;48.392;9.998;2023-01-08T09:02:09;3.10;99.90
9157;DHT22;4613;48.392;9.998;2023-01-08T09:04:59;2.90;99.90
9157;DHT22;4613;48.392;9.998;2023-01-08T09:07:49;3.00;99.90
9157;DHT22;4613;48.392;9.998;2023-01-08T09:10:39;3.00;99.90
9157;DHT22;4613;48.392;9.998;2023-01-08T09:13:30;3.10;99.90
9157;DHT22;4613;48.392;9.998;2023-01-08T09:16:19;3.00;99.90
9157;DHT22;4613;48.392;9.998;2023-01-08T09:22:16;2.90;99.90
9157;DHT22;4613;48.392;9.998;2023-01-08T09:25:07;3.00;99.90
9157;DHT22;4613;48.392;9.998;2023-01-08T09:28:05;3.20;99.90
9157;DHT22;4613;48.392;9.998;2023-01-08T09:30:55;3.30;99.90
9157;DHT22;4613;48.392;9.998;2023-01-08T09:33:47;3.30;99.90
9157;DHT22;4613;48.392;9.998;2023-01-08T09:36:37;3.50;99.90
9157;DHT22;4613;48.392;9.998;2023-01-08T09:39:28;3.40;99.90
9157;DHT22;4613;48.392;9.998;2023-01-08T09:42:25;3.50;99.90
9157;DHT22;4613;48.392;9.998;2023-01-08T09:45:26;3.70;99.90
9157;DHT22;4613;48.392;9.998;2023-01-08T09:48:17;4.10;99.90
9157;DHT22;4613;48.392;9.998;2023-01-08T09:51:13;4.70;99.90
9157;DHT22;4613;48.392;9.998;2023-01-08T09:54:04;5.00;99.90
9157;DHT22;4613;48.392;9.998;2023-01-08T09:56:57;5.60;99.90
9157;DHT22;4613;48.392;9.998;2023-01-08T09:59:48;4.60;99.90
9157;DHT22;4613;48.392;9.998;2023-01-08T10:02:38;4.00;99.90
9157;DHT22;4613;48.392;9.998;2023-01-08T10:05:30;4.10;99.90
9157;DHT22;4613;48.392;9.998;2023-01-08T10:08:20;4.10;99.90
9157;DHT22;4613;48.392;9.998;2023-01-08T10:11:12;4.20;99.90
9157;DHT22;4613;48.392;9.998;2023-01-08T10:14:05;4.00;99.90
9157;DHT22;4613;48.392;9.998;2023-01-08T10:20:21;4.20;99.90
9157;DHT22;4613;48.392;9.998;2023-01-08T10:23:15;4.30;99.90
9157;DHT22;4613;48.392;9.998;2023-01-08T10:26:05;4.30;99.90
9157;DHT22;4613;48.392;9.998;2023-01-08T10:29:07;4.20;99.90
9157;DHT22;4613;48.392;9.998;2023-01-08T10:31:58;4.10;99.90
9157;DHT22;4613;48.392;9.998;2023-01-08T10:34:57;4.00;99.90
9157;DHT22;4613;48.392;9.998;2023-01-08T10:37:47;4.10;99.90
9157;DHT22;4613;48.392;9.998;2023-01-08T10:40:48;4.10;99.90
9157;DHT22;4613;48.392;9.998;2023-01-08T10:43:57;4.30;99.90
9157;DHT22;4613;48.392;9.998;2023-01-08T10:46:57;4.40;99.90
9157;DHT22;4613;48.392;9.998;2023-01-08T10:49:51;4.40;99.90
9157;DHT22;4613;48.392;9.998;2023-01-08T10:52:51;4.40;99.90
9157;DHT22;4613;48.392;9.998;2023-01-08T10:55:42;4.40;99.90
9157;DHT22;4613;48.392;9.998;2023-01-08T10:58:41;4.60;99.90
9157;DHT22;4613;48.392;9.998;2023-01-08T11:01:32;4.60;99.90
9157;DHT22;4613;48.392;9.998;2023-01-08T11:04:30;4.70;99.90
9157;DHT22;4613;48.392;9.998;2023-01-08T11:07:22;4.90;99.90
9157;DHT22;4613;48.392;9.998;2023-01-08T11:10:25;4.90;99.90
9157;DHT22;4613;48.392;9.998;2023-01-08T11:13:16;5.10;99.90
9157;DHT22;4613;48.392;9.998;2023-01-08T11:16:09;5.20;99.90
9157;DHT22;4613;48.392;9.998;2023-01-08T11:18:58;5.20;99.90
9157;DHT22;4613;48.392;9.998;2023-01-08T11:22:05;5.40;99.90
9157;DHT22;4613;48.392;9.998;2023-01-08T11:25:12;5.50;99.90
9157;DHT22;4613;48.392;9.998;2023-01-08T11:28:03;5.60;99.90
9157;DHT22;4613;48.392;9.998;2023-01-08T11:31:00;5.70;99.90
9157;DHT22;4613;48.392;9.998;2023-01-08T11:33:57;5.80;99.90
9157;DHT22;4613;48.392;9.998;2023-01-08T11:37:09;5.90;99.90
9157;DHT22;4613;48.392;9.998;2023-01-08T11:40:00;6.00;99.90
9157;DHT22;4613;48.392;9.998;2023-01-08T11:46:52;6.10;99.90
9157;DHT22;4613;48.392;9.998;2023-01-08T11:53:30;6.40;99.90
9157;DHT22;4613;48.392;9.998;2023-01-08T12:03:07;6.40;99.90
9157;DHT22;4613;48.392;9.998;2023-01-08T12:06:31;6.40;99.90
9157;DHT22;4613;48.392;9.998;2023-01-08T12:09:40;6.40;99.90
9157;DHT22;4613;48.392;9.998;2023-01-08T12:12:39;6.50;99.90
9157;DHT22;4613;48.392;9.998;2023-01-08T12:21:48;6.60;99.90
9157;DHT22;4613;48.392;9.998;2023-01-08T12:25:19;6.70;99.90
9157;DHT22;4613;48.392;9.998;2023-01-08T12:28:14;6.60;99.90
9157;DHT22;4613;48.392;9.998;2023-01-08T12:34:32;6.60;99.90
9157;DHT22;4613;48.392;9.998;2023-01-08T12:37:38;6.60;99.90
9157;DHT22;4613;48.392;9.998;2023-01-08T12:40:35;6.70;99.90
9157;DHT22;4613;48.392;9.998;2023-01-08T12:43:36;6.70;99.90
9157;DHT22;4613;48.392;9.998;2023-01-08T12:46:36;6.80;99.90
9157;DHT22;4613;48.392;9.998;2023-01-08T12:49:46;6.80;99.90
9157;DHT22;4613;48.392;9.998;2023-01-08T12:52:54;6.90;99.90
9157;DHT22;4613;48.392;9.998;2023-01-08T12:56:08;6.90;99.90
9157;DHT22;4613;48.392;9.998;2023-01-08T13:08:23;6.90;99.90
9157;DHT22;4613;48.392;9.998;2023-01-08T13:11:35;6.90;99.90
9157;DHT22;4613;48.392;9.998;2023-01-08T13:14:26;6.90;99.90
9157;DHT22;4613;48.392;9.998;2023-01-08T13:17:18;6.90;99.90
9157;DHT22;4613;48.392;9.998;2023-01-08T13:20:25;7.00;99.90
9157;DHT22;4613;48.392;9.998;2023-01-08T13:23:23;7.00;99.90
9157;DHT22;4613;48.392;9.998;2023-01-08T13:26:15;6.90;99.90
9157;DHT22;4613;48.392;9.998;2023-01-08T13:29:36;7.00;99.90
9157;DHT22;4613;48.392;9.998;2023-01-08T13:32:51;6.90;99.90
9157;DHT22;4613;48.392;9.998;2023-01-08T13:35:40;6.90;99.90
9157;DHT22;4613;48.392;9.998;2023-01-08T13:38:30;6.90;99.90
9157;DHT22;4613;48.392;9.998;2023-01-08T13:41:31;6.90;99.90
9157;DHT22;4613;48.392;9.998;2023-01-08T13:44:26;6.90;99.90
9157;DHT22;4613;48.392;9.998;2023-01-08T13:47:40;6.90;99.90
9157;DHT22;4613;48.392;9.998;2023-01-08T13:50:31;6.90;99.90
9157;DHT22;4613;48.392;9.998;2023-01-08T13:53:24;6.90;99.90
9157;DHT22;4613;48.392;9.998;2023-01-08T13:56:13;6.90;99.90
9157;DHT22;4613;48.392;9.998;2023-01-08T13:59:03;6.90;99.90
9157;DHT22;4613;48.392;9.998;2023-01-08T14:01:56;6.90;99.90
9157;DHT22;4613;48.392;9.998;2023-01-08T14:04:49;6.90;99.90
9157;DHT22;4613;48.392;9.998;2023-01-08T14:07:42;6.90;99.90
9157;DHT22;4613;48.392;9.998;2023-01-08T14:10:31;6.90;99.90
9157;DHT22;4613;48.392;9.998;2023-01-08T14:13:29;6.80;99.90
9157;DHT22;4613;48.392;9.998;2023-01-08T14:16:19;6.80;99.90
9157;DHT22;4613;48.392;9.998;2023-01-08T14:19:21;6.80;99.90
9157;DHT22;4613;48.392;9.998;2023-01-08T14:22:32;6.80;99.90
9157;DHT22;4613;48.392;9.998;2023-01-08T14:25:23;6.90;99.90
9157;DHT22;4613;48.392;9.998;2023-01-08T14:28:18;6.80;99.90
9157;DHT22;4613;48.392;9.998;2023-01-08T14:31:19;6.70;99.90
9157;DHT22;4613;48.392;9.998;2023-01-08T14:34:10;6.70;99.90
9157;DHT22;4613;48.392;9.998;2023-01-08T14:37:02;6.70;99.90
9157;DHT22;4613;48.392;9.998;2023-01-08T14:39:58;6.70;99.90
9157;DHT22;4613;48.392;9.998;2023-01-08T14:42:47;6.70;99.90
9157;DHT22;4613;48.392;9.998;2023-01-08T14:45:48;6.70;99.90
9157;DHT22;4613;48.392;9.998;2023-01-08T14:48:41;6.80;99.90
9157;DHT22;4613;48.392;9.998;2023-01-08T14:51:32;6.80;99.90
9157;DHT22;4613;48.392;9.998;2023-01-08T14:54:33;6.90;99.90
9157;DHT22;4613;48.392;9.998;2023-01-08T14:57:25;6.90;99.90
9157;DHT22;4613;48.392;9.998;2023-01-08T15:00:26;6.90;99.90
9157;DHT22;4613;48.392;9.998;2023-01-08T15:03:37;7.00;99.90
9157;DHT22;4613;48.392;9.998;2023-01-08T15:06:29;6.90;99.90
9157;DHT22;4613;48.392;9.998;2023-01-08T15:09:25;6.90;99.90
9157;DHT22;4613;48.392;9.998;2023-01-08T15:12:24;6.90;99.90
9157;DHT22;4613;48.392;9.998;2023-01-08T15:15:23;6.90;99.90
9157;DHT22;4613;48.392;9.998;2023-01-08T15:18:15;6.80;99.90
9157;DHT22;4613;48.392;9.998;2023-01-08T15:21:04;6.90;99.90
9157;DHT22;4613;48.392;9.998;2023-01-08T15:23:55;6.90;99.90
9157;DHT22;4613;48.392;9.998;2023-01-08T15:26:45;6.90;99.90
9157;DHT22;4613;48.392;9.998;2023-01-08T15:29:38;6.80;99.90
9157;DHT22;4613;48.392;9.998;2023-01-08T15:32:30;6.70;99.90
9157;DHT22;4613;48.392;9.998;2023-01-08T15:35:22;6.60;99.90
9157;DHT22;4613;48.392;9.998;2023-01-08T15:38:14;6.70;99.90
9157;DHT22;4613;48.392;9.998;2023-01-08T15:41:03;6.70;99.90
9157;DHT22;4613;48.392;9.998;2023-01-08T15:43:53;6.70;99.90
9157;DHT22;4613;48.392;9.998;2023-01-08T15:46:42;6.60;99.90
9157;DHT22;4613;48.392;9.998;2023-01-08T15:49:31;6.60;99.90
9157;DHT22;4613;48.392;9.998;2023-01-08T15:52:23;6.70;99.90
9157;DHT22;4613;48.392;9.998;2023-01-08T15:55:20;6.70;99.90
9157;DHT22;4613;48.392;9.998;2023-01-08T15:58:10;6.60;99.90
9157;DHT22;4613;48.392;9.998;2023-01-08T16:01:00;6.60;99.90
9157;DHT22;4613;48.392;9.998;2023-01-08T16:03:49;6.60;99.90
9157;DHT22;4613;48.392;9.998;2023-01-08T16:06:38;6.60;99.90
9157;DHT22;4613;48.392;9.998;2023-01-08T16:09:32;6.60;99.90
9157;DHT22;4613;48.392;9.998;2023-01-08T16:12:21;6.60;99.90
9157;DHT22;4613;48.392;9.998;2023-01-08T16:15:11;6.70;99.90
9157;DHT22;4613;48.392;9.998;2023-01-08T16:18:01;6.90;99.90
9157;DHT22;4613;48.392;9.998;2023-01-08T16:20:58;6.90;99.90
9157;DHT22;4613;48.392;9.998;2023-01-08T16:23:48;6.80;99.90
9157;DHT22;4613;48.392;9.998;2023-01-08T16:26:37;6.70;99.90
9157;DHT22;4613;48.392;9.998;2023-01-08T16:29:26;6.60;99.90
9157;DHT22;4613;48.392;9.998;2023-01-08T16:32:16;6.60;99.90
9157;DHT22;4613;48.392;9.998;2023-01-08T16:35:06;6.60;99.90
9157;DHT22;4613;48.392;9.998;2023-01-08T16:37:55;6.60;99.90
9157;DHT22;4613;48.392;9.998;2023-01-08T16:40:44;6.60;99.90
9157;DHT22;4613;48.392;9.998;2023-01-08T16:43:38;6.60;99.90
9157;DHT22;4613;48.392;9.998;2023-01-08T16:46:28;6.60;99.90
9157;DHT22;4613;48.392;9.998;2023-01-08T16:49:18;6.60;99.90
9157;DHT22;4613;48.392;9.998;2023-01-08T16:52:07;6.70;99.90
9157;DHT22;4613;48.392;9.998;2023-01-08T16:54:57;6.80;99.90
9157;DHT22;4613;48.392;9.998;2023-01-08T16:57:46;6.80;99.90
9157;DHT22;4613;48.392;9.998;2023-01-08T17:00:38;6.80;99.90
9157;DHT22;4613;48.392;9.998;2023-01-08T17:03:28;6.80;99.90
9157;DHT22;4613;48.392;9.998;2023-01-08T17:06:20;6.80;99.90
9157;DHT22;4613;48.392;9.998;2023-01-08T17:09:09;6.70;99.90
9157;DHT22;4613;48.392;9.998;2023-01-08T17:11:59;6.70;99.90
9157;DHT22;4613;48.392;9.998;2023-01-08T17:14:49;6.70;99.90
9157;DHT22;4613;48.392;9.998;2023-01-08T17:17:38;6.80;99.90
9157;DHT22;4613;48.392;9.998;2023-01-08T17:20:28;6.80;99.90
9157;DHT22;4613;48.392;9.998;2023-01-08T17:23:17;6.80;99.90
9157;DHT22;4613;48.392;9.998;2023-01-08T17:26:13;6.80;99.90
9157;DHT22;4613;48.392;9.998;2023-01-08T17:29:03;6.80;99.90
9157;DHT22;4613;48.392;9.998;2023-01-08T17:31:52;6.60;99.90
9157;DHT22;4613;48.392;9.998;2023-01-08T17:34:41;6.70;99.90
9157;DHT22;4613;48.392;9.998;2023-01-08T17:37:31;6.70;99.90
9157;DHT22;4613;48.392;9.998;2023-01-08T17:40:21;6.70;99.90
9157;DHT22;4613;48.392;9.998;2023-01-08T17:43:10;6.70;99.90
9157;DHT22;4613;48.392;9.998;2023-01-08T17:46:04;6.70;99.90
9157;DHT22;4613;48.392;9.998;2023-01-08T17:48:53;6.60;99.90
9157;DHT22;4613;48.392;9.998;2023-01-08T17:51:43;6.50;99.90
9157;DHT22;4613;48.392;9.998;2023-01-08T17:54:34;6.60;99.90
9157;DHT22;4613;48.392;9.998;2023-01-08T17:57:30;6.50;99.90
9157;DHT22;4613;48.392;9.998;2023-01-08T18:00:22;6.50;99.90
9157;DHT22;4613;48.392;9.998;2023-01-08T18:03:12;6.50;99.90
9157;DHT22;4613;48.392;9.998;2023-01-08T18:06:06;6.40;99.90
9157;DHT22;4613;48.392;9.998;2023-01-08T18:08:55;6.50;99.90
9157;DHT22;4613;48.392;9.998;2023-01-08T18:11:45;6.50;99.90
9157;DHT22;4613;48.392;9.998;2023-01-08T18:14:34;6.60;99.90
9157;DHT22;4613;48.392;9.998;2023-01-08T18:17:25;6.40;99.90
9157;DHT22;4613;48.392;9.998;2023-01-08T18:20:17;6.20;99.90
9157;DHT22;4613;48.392;9.998;2023-01-08T18:23:06;6.10;99.90
9157;DHT22;4613;48.392;9.998;2023-01-08T18:25:56;6.00;99.90
9157;DHT22;4613;48.392;9.998;2023-01-08T18:28:46;6.00;99.90
9157;DHT22;4613;48.392;9.998;2023-01-08T18:31:39;6.10;99.90
9157;DHT22;4613;48.392;9.998;2023-01-08T18:34:28;6.20;99.90
9157;DHT22;4613;48.392;9.998;2023-01-08T18:37:17;6.40;99.90
9157;DHT22;4613;48.392;9.998;2023-01-08T18:40:07;6.50;99.90
9157;DHT22;4613;48.392;9.998;2023-01-08T18:42:57;6.50;99.90
9157;DHT22;4613;48.392;9.998;2023-01-08T18:45:46;6.30;99.90
9157;DHT22;4613;48.392;9.998;2023-01-08T18:48:35;6.20;99.90
9157;DHT22;4613;48.392;9.998;2023-01-08T18:51:25;6.10;99.90
9157;DHT22;4613;48.392;9.998;2023-01-08T18:54:14;6.10;99.90
9157;DHT22;4613;48.392;9.998;2023-01-08T18:57:04;5.90;99.90
9157;DHT22;4613;48.392;9.998;2023-01-08T19:00:04;6.00;99.90
9157;DHT22;4613;48.392;9.998;2023-01-08T19:03:03;6.20;99.90
9157;DHT22;4613;48.392;9.998;2023-01-08T19:06:03;6.30;99.90
9157;DHT22;4613;48.392;9.998;2023-01-08T19:08:52;6.30;99.90
9157;DHT22;4613;48.392;9.998;2023-01-08T19:11:42;6.40;99.90
9157;DHT22;4613;48.392;9.998;2023-01-08T19:14:34;6.50;99.90
9157;DHT22;4613;48.392;9.998;2023-01-08T19:17:24;6.50;99.90
9157;DHT22;4613;48.392;9.998;2023-01-08T19:20:13;6.50;99.90
9157;DHT22;4613;48.392;9.998;2023-01-08T19:23:03;6.60;99.90
9157;DHT22;4613;48.392;9.998;2023-01-08T19:25:54;6.60;99.90
9157;DHT22;4613;48.392;9.998;2023-01-08T19:28:48;6.60;99.90
9157;DHT22;4613;48.392;9.998;2023-01-08T19:31:38;6.60;99.90
9157;DHT22;4613;48.392;9.998;2023-01-08T19:34:27;6.60;99.90
9157;DHT22;4613;48.392;9.998;2023-01-08T19:37:25;6.70;99.90
9157;DHT22;4613;48.392;9.998;2023-01-08T19:40:15;6.70;99.90
9157;DHT22;4613;48.392;9.998;2023-01-08T19:43:09;6.70;99.90
9157;DHT22;4613;48.392;9.998;2023-01-08T19:46:18;6.70;99.90
9157;DHT22;4613;48.392;9.998;2023-01-08T19:49:08;6.70;99.90
9157;DHT22;4613;48.392;9.998;2023-01-08T19:52:00;6.70;99.90
9157;DHT22;4613;48.392;9.998;2023-01-08T19:54:51;6.70;99.90